Armstrong Creek, Wisconsin
Current Conditions -  °F | °C
As of 9:54 AM on Thursday 23 Oct 2014 (Local Time) from KIMT Reporting Station
Overcast Overcast  
Wind Chill: 38°   Ceiling: 8000
Heat Index: 43°   Visibility: 10mi
Dew Point: 36°   Wind: 8mph
Humidity: 76%   Direction: 170°S
Pressure: 30.1"   Gusts: NA
Location:  45.66°N, 88.45°W
Report Text: KIMT 231454Z AUTO 17007KT 10SM OVC080 06/02 A3010 RMK AO2 SLP203 T00610022 56009
Loading
Personal Weather Stations






























Interactive Weather Map New forecast layout! Learn more

10-Day Weather Forecast

Advertisements
Track Severe Weather on mobile